Time;durP1;ratioP1;P1;durP2;ratioP2;P2;SDS_P1;SDS_P2;PMS_P1;PMS_P2;Temp;Humidity;BMP_temperature;BMP_pressure;BME280_temperature;BME280_humidity;BME280_pressure;Samples;Min_cycle;Max_cycle;Signal;HPM_P1;HPM_P2
2023/01/03 00:00:00;;;;;;;2.08;1.15;;;;;;;-144.47;94.86;52871.97;4991575;28;20086;-67
2023/01/03 00:02:25;;;;;;;3.42;1.35;;;;;;;-144.47;94.96;52834.25;4989116;28;20229;-68
2023/01/03 00:04:51;;;;;;;3.28;1.50;;;;;;;-144.47;94.92;52873.97;4982253;28;20136;-68
2023/01/03 00:07:32;;;;;;;2.72;1.40;;;;;;;-144.47;95.07;52864.03;4990725;28;20367;-68
2023/01/03 00:10:01;;;;;;;3.25;1.40;;;;;;;-144.47;94.71;52852.13;4988212;28;20507;-68
2023/01/03 00:12:27;;;;;;;2.70;1.35;;;;;;;-144.47;94.89;52844.19;4993020;28;20515;-67
2023/01/03 00:14:52;;;;;;;3.65;1.50;;;;;;;-144.47;94.86;52860.06;4987473;28;20128;-68
2023/01/03 00:17:18;;;;;;;2.35;1.27;;;;;;;-144.47;95.19;52873.97;4989041;28;20061;-67
2023/01/03 00:19:44;;;;;;;3.92;1.70;;;;;;;-144.47;95.62;52856.09;4991268;28;20025;-67
2023/01/03 00:22:11;;;;;;;3.78;1.70;;;;;;;-144.47;95.91;52848.16;4990624;28;20057;-69
2023/01/03 00:24:37;;;;;;;3.95;1.88;;;;;;;-144.47;95.99;52816.38;4989469;28;20026;-70
2023/01/03 00:27:02;;;;;;;4.10;1.60;;;;;;;-144.47;95.81;52842.19;4988658;28;20034;-68
2023/01/03 00:29:28;;;;;;;6.20;2.03;;;;;;;-144.47;96.22;52842.19;4993549;28;20499;-68
2023/01/03 00:31:53;;;;;;;3.28;1.90;;;;;;;-144.47;96.32;52812.41;4989679;28;20145;-68
2023/01/03 00:34:18;;;;;;;3.17;1.63;;;;;;;-144.47;96.59;52828.28;4988027;28;20061;-68
2023/01/03 00:36:44;;;;;;;4.80;2.08;;;;;;;-144.47;96.41;52846.16;4996173;28;20516;-65
2023/01/03 00:39:10;;;;;;;4.07;1.70;;;;;;;-144.47;96.68;52818.34;4990369;28;20094;-68
2023/01/03 00:41:36;;;;;;;3.40;1.90;;;;;;;-144.47;96.98;52873.97;4992796;28;20069;-69
2023/01/03 00:44:02;;;;;;;3.75;1.75;;;;;;;-144.47;96.84;52824.31;4987818;28;20029;-69
2023/01/03 00:46:28;;;;;;;4.35;2.10;;;;;;;-144.47;96.67;52836.22;4991919;28;20034;-69
2023/01/03 00:48:53;;;;;;;3.30;1.70;;;;;;;-144.47;96.61;52844.19;4989056;28;20593;-67
2023/01/03 00:51:23;;;;;;;8.20;1.88;;;;;;;-144.47;96.40;52836.22;4990658;28;20026;-68
2023/01/03 00:53:51;;;;;;;6.22;2.13;;;;;;;-144.47;96.17;52864.03;4993392;28;20386;-68
2023/01/03 00:56:21;;;;;;;4.28;2.13;;;;;;;-144.47;96.22;52850.13;4997511;28;20034;-68
2023/01/03 00:58:47;;;;;;;4.60;2.10;;;;;;;-144.47;96.09;52848.16;4996590;28;20041;-68
2023/01/03 01:01:22;;;;;;;3.10;1.77;;;;;;;-144.47;95.70;52866.03;4990646;28;20026;-67
2023/01/03 01:03:50;;;;;;;2.63;1.65;;;;;;;-144.47;95.30;52864.03;4989847;28;20025;-68
2023/01/03 01:06:28;;;;;;;5.15;2.33;;;;;;;-144.47;95.18;52856.09;4990178;28;20050;-68
2023/01/03 01:08:56;;;;;;;3.55;1.80;;;;;;;-144.47;94.75;52824.31;4997941;28;20030;-68
2023/01/03 01:11:22;;;;;;;5.57;2.27;;;;;;;-144.47;94.28;52844.19;4991763;28;20042;-69
2023/01/03 01:13:49;;;;;;;4.97;1.73;;;;;;;-144.47;93.54;52870.00;4989857;28;20037;-67
2023/01/03 01:16:17;;;;;;;4.90;2.15;;;;;;;-144.47;92.66;52868.00;5001275;28;20491;-66
2023/01/03 01:18:45;;;;;;;3.25;1.75;;;;;;;-144.47;92.14;52866.03;4990702;28;20476;-68
2023/01/03 01:21:19;;;;;;;4.63;1.85;;;;;;;-144.47;91.55;52852.13;4992033;28;20133;-66
2023/01/03 01:23:45;;;;;;;3.85;1.67;;;;;;;-144.47;90.52;52850.13;4991889;28;20398;-67
2023/01/03 01:26:14;;;;;;;4.40;1.65;;;;;;;-144.47;90.52;52840.19;4992374;28;20035;-67
2023/01/03 01:28:40;;;;;;;3.25;1.52;;;;;;;-144.47;90.11;52860.06;4985318;28;20094;-68
2023/01/03 01:31:06;;;;;;;3.30;1.58;;;;;;;-144.47;89.85;52844.19;4995082;28;20500;-67
2023/01/03 01:33:33;;;;;;;1.98;1.30;;;;;;;-144.47;88.87;52848.16;4993283;28;20034;-68
2023/01/03 01:36:13;;;;;;;4.60;1.58;;;;;;;-144.47;88.54;52856.09;4991087;28;20026;-68
2023/01/03 01:38:39;;;;;;;3.75;1.60;;;;;;;-144.47;87.44;52844.19;4991178;28;20057;-68
2023/01/03 01:41:04;;;;;;;2.95;1.25;;;;;;;-144.47;87.11;52850.13;4991115;28;20038;-67
2023/01/03 01:46:25;;;;;;;1.10;0.90;;;;;;;-144.47;86.56;52846.16;4990955;28;20061;-66
2023/01/03 01:48:57;;;;;;;2.88;1.30;;;;;;;-144.47;86.91;52871.97;4990239;28;20038;-67
2023/01/03 01:51:25;;;;;;;3.95;1.20;;;;;;;-144.47;86.86;52842.19;4991441;28;20034;-68
2023/01/03 01:53:53;;;;;;;2.70;1.30;;;;;;;-144.47;87.21;52840.19;4990792;28;20564;-66
2023/01/03 01:56:24;;;;;;;3.90;1.58;;;;;;;-144.47;86.84;52830.28;4990621;28;20034;-68
2023/01/03 01:58:51;;;;;;;4.43;1.35;;;;;;;-144.47;86.41;52844.19;4989143;28;20068;-67
2023/01/03 02:01:20;;;;;;;3.85;1.17;;;;;;;-144.47;86.49;52846.16;4989288;28;20026;-68
2023/01/03 02:03:55;;;;;;;1.95;1.20;;;;;;;-144.47;86.10;52832.25;4990017;28;20045;-68
2023/01/03 02:06:21;;;;;;;4.07;1.30;;;;;;;-144.47;85.85;52862.06;4990249;28;20081;-66
2023/01/03 02:08:47;;;;;;;5.38;1.70;;;;;;;-144.47;85.84;52822.31;4989914;28;20064;-68
2023/01/03 02:11:30;;;;;;;3.17;1.20;;;;;;;-144.47;85.70;52844.19;4990518;28;20425;-66
2023/01/03 02:14:08;;;;;;;2.25;1.33;;;;;;;-144.47;86.16;52862.06;4985360;28;20039;-66
2023/01/03 02:16:55;;;;;;;7.03;1.40;;;;;;;-144.47;86.03;52848.16;5002206;28;20026;-67
2023/01/03 02:19:38;;;;;;;2.05;1.25;;;;;;;-144.47;86.72;52848.16;4989953;28;20427;-69
2023/01/03 02:22:31;;;;;;;6.55;1.40;;;;;;;-144.47;86.81;52838.22;4979028;28;20506;-68
2023/01/03 02:25:27;;;;;;;2.30;1.17;;;;;;;-144.47;86.14;52854.09;4990550;28;20018;-67
2023/01/03 02:28:04;;;;;;;4.88;1.30;;;;;;;-144.47;85.80;52824.31;4989367;28;20065;-67
2023/01/03 02:30:37;;;;;;;4.00;1.45;;;;;;;-144.47;85.65;52854.09;4990769;28;20030;-67
2023/01/03 02:33:21;;;;;;;2.92;1.40;;;;;;;-144.47;85.79;52838.22;4990626;28;20030;-68
2023/01/03 02:35:52;;;;;;;2.30;1.23;;;;;;;-144.47;85.48;52870.00;4990976;28;20170;-67
2023/01/03 02:38:32;;;;;;;5.47;1.35;;;;;;;-144.47;85.18;52844.19;4988803;28;20026;-68
2023/01/03 02:41:15;;;;;;;1.33;1.00;;;;;;;-144.47;85.91;52852.13;4990072;28;20344;-68
2023/01/03 02:43:55;;;;;;;4.13;1.10;;;;;;;-144.47;86.20;52866.03;4989607;28;20037;-68
2023/01/03 02:46:33;;;;;;;2.45;1.10;;;;;;;-144.47;87.03;52862.06;4990058;28;20029;-69
2023/01/03 02:49:07;;;;;;;7.60;1.27;;;;;;;-144.47;87.29;52864.03;4989451;28;20067;-67
2023/01/03 02:51:34;;;;;;;4.18;1.30;;;;;;;-144.47;86.86;52842.19;4991058;28;20375;-67
2023/01/03 02:54:02;;;;;;;2.80;1.00;;;;;;;-144.47;86.87;52856.09;4990639;28;20118;-68
2023/01/03 02:56:51;;;;;;;3.42;1.08;;;;;;;-144.47;86.89;52875.94;4989675;28;20113;-67
2023/01/03 02:59:22;;;;;;;2.00;1.10;;;;;;;-144.47;86.85;52862.06;4989691;28;20105;-67
2023/01/03 03:01:50;;;;;;;1.67;1.10;;;;;;;-144.47;86.70;52838.22;4990311;28;20042;-66
2023/01/03 03:04:17;;;;;;;3.78;1.35;;;;;;;-144.47;86.67;52860.06;4989528;28;20457;-66
2023/01/03 03:06:58;;;;;;;2.95;1.30;;;;;;;-144.47;86.58;52858.06;4989094;28;20113;-67
2023/01/03 03:09:23;;;;;;;4.95;1.70;;;;;;;-144.47;86.66;52832.25;4998450;28;20029;-67
2023/01/03 03:14:42;;;;;;;3.08;1.27;;;;;;;-144.47;86.29;52889.84;4996266;28;20049;-67
2023/01/03 03:17:13;;;;;;;7.22;1.73;;;;;;;-144.47;86.16;52854.09;4994301;28;20030;-67
2023/01/03 03:25:21;;;;;;;2.78;1.30;;;;;;;-144.47;86.86;52887.88;4977433;28;20470;-68
2023/01/03 03:30:37;;;;;;;3.88;1.60;;;;;;;-144.47;86.42;52856.09;4989324;28;20411;-66
2023/01/03 03:33:05;;;;;;;2.97;1.50;;;;;;;-144.47;85.82;52852.13;4989166;28;20140;-66
2023/01/03 03:35:37;;;;;;;2.63;1.60;;;;;;;-144.47;84.89;52881.91;4989148;28;20444;-68
2023/01/03 03:38:07;;;;;;;4.93;1.52;;;;;;;-144.47;84.13;52840.19;4988970;28;20058;-68
2023/01/03 03:46:22;;;;;;;4.05;1.63;;;;;;;-144.47;84.51;52856.09;4989271;28;20033;-68
2023/01/03 03:51:47;;;;;;;3.45;1.90;;;;;;;-144.47;85.45;52836.22;4990229;28;20033;-67
2023/01/03 03:54:18;;;;;;;6.15;1.50;;;;;;;-144.47;85.80;52868.00;4987549;28;20084;-68
2023/01/03 03:56:48;;;;;;;6.05;1.90;;;;;;;-144.47;86.21;52854.09;4989000;28;20336;-66
2023/01/03 03:59:16;;;;;;;2.03;1.30;;;;;;;-144.47;86.68;52842.19;4987470;28;20026;-68
2023/01/03 04:01:44;;;;;;;2.88;1.50;;;;;;;-144.47;86.78;52858.06;4989265;28;20026;-68
2023/01/03 04:04:20;;;;;;;5.50;1.65;;;;;;;-144.47;87.14;52875.94;4988106;28;20026;-67
2023/01/03 04:06:49;;;;;;;5.57;1.85;;;;;;;-144.47;87.71;52838.22;4988348;28;20045;-69
2023/01/03 04:09:14;;;;;;;4.47;1.88;;;;;;;-144.47;87.94;52897.81;4998905;28;20165;-69
2023/01/03 04:11:40;;;;;;;4.00;1.77;;;;;;;-144.47;88.04;52854.09;5015506;23;20084;-90
2023/01/03 04:14:08;;;;;;;4.32;2.10;;;;;;;-144.47;88.76;52836.22;5018103;28;20022;-90
2023/01/03 04:16:36;;;;;;;3.30;1.63;;;;;;;-144.47;89.25;52864.03;5019073;28;20026;-93
2023/01/03 04:19:02;;;;;;;5.93;2.40;;;;;;;-144.47;89.53;52885.88;5017681;28;20314;-91
2023/01/03 04:24:54;;;;;;;4.47;2.17;;;;;;;-144.47;89.87;52808.44;5017631;28;20084;-91
2023/01/03 04:27:28;;;;;;;6.82;2.58;;;;;;;-144.47;90.15;52840.19;5017785;28;20390;-91
2023/01/03 04:29:59;;;;;;;5.10;2.25;;;;;;;-144.47;89.89;52836.22;5021684;28;20115;-91
2023/01/03 04:32:25;;;;;;;7.45;2.50;;;;;;;-144.47;89.43;52868.00;5020770;28;20030;-91
2023/01/03 04:34:51;;;;;;;5.78;2.80;;;;;;;-144.47;89.06;52836.22;5020960;28;20056;-90
2023/01/03 04:37:20;;;;;;;4.03;2.13;;;;;;;-144.47;88.73;52858.06;5022640;28;20050;-91
2023/01/03 04:39:54;;;;;;;6.50;2.83;;;;;;;-144.47;88.24;52897.81;5021834;28;20026;-89
2023/01/03 04:45:20;;;;;;;5.97;2.38;;;;;;;-144.47;87.63;52860.06;5057089;23;20068;-89
2023/01/03 04:47:51;;;;;;;5.40;2.17;;;;;;;-144.47;87.28;52842.19;5039628;28;20026;-89
2023/01/03 04:50:28;;;;;;;4.38;2.55;;;;;;;-144.47;86.84;52868.00;5024473;28;20022;-90
2023/01/03 04:52:56;;;;;;;4.55;2.35;;;;;;;-144.47;86.70;52830.28;5023620;28;20053;-90
2023/01/03 04:55:31;;;;;;;6.47;2.67;;;;;;;-144.47;86.60;52854.09;5034548;28;20037;-91
2023/01/03 04:57:57;;;;;;;6.50;3.15;;;;;;;-144.47;86.14;52846.16;5033347;28;20112;-91
2023/01/03 05:00:30;;;;;;;8.43;2.65;;;;;;;-144.47;85.92;52871.97;5033929;28;20021;-91
2023/01/03 05:03:03;;;;;;;10.93;3.88;;;;;;;-144.47;85.50;52870.00;5016473;28;20113;-91
2023/01/03 05:05:29;;;;;;;8.13;2.70;;;;;;;-144.47;85.62;52854.09;5014421;28;20462;-92
2023/01/03 05:08:36;;;;;;;5.70;2.80;;;;;;;-144.47;84.60;52856.09;5013341;28;20033;-91
2023/01/03 05:11:17;;;;;;;6.55;3.05;;;;;;;-144.47;83.68;52814.38;5014910;28;20021;-91
2023/01/03 05:13:42;;;;;;;6.20;2.83;;;;;;;-144.47;84.14;52889.84;5018030;28;20044;-91
2023/01/03 05:16:11;;;;;;;5.55;2.75;;;;;;;-144.47;84.52;52854.09;5019816;28;20042;-92
2023/01/03 05:18:45;;;;;;;10.10;3.50;;;;;;;-144.47;84.43;52860.06;5017798;28;20124;-91
2023/01/03 05:27:22;;;;;;;5.45;2.97;;;;;;;-144.47;84.80;52877.94;5003079;28;20072;-91
2023/01/03 05:30:15;;;;;;;6.28;3.17;;;;;;;-144.47;84.52;52844.19;5014177;28;20457;-91
2023/01/03 05:32:47;;;;;;;11.27;3.38;;;;;;;-144.47;85.08;52858.06;5001818;28;20065;-91
2023/01/03 05:35:16;;;;;;;8.23;3.60;;;;;;;-144.47;85.63;52822.31;5017414;28;20179;-89
2023/01/03 05:37:45;;;;;;;7.30;3.70;;;;;;;-144.47;85.73;52830.28;5019135;28;20507;-91
2023/01/03 05:40:13;;;;;;;13.38;3.70;;;;;;;-144.47;85.95;52868.00;5017140;28;20122;-91
2023/01/03 05:42:42;;;;;;;9.73;4.33;;;;;;;-144.47;86.37;52842.19;5001285;28;20386;-92
2023/01/03 05:45:13;;;;;;;9.05;4.55;;;;;;;-144.47;86.54;52858.06;5020941;28;20353;-90
2023/01/03 05:47:40;;;;;;;6.85;3.28;;;;;;;-144.47;86.75;52836.22;5018512;28;20034;-90
2023/01/03 05:50:14;;;;;;;8.35;3.58;;;;;;;-144.47;87.12;52864.03;5019444;28;20029;-90
2023/01/03 05:52:47;;;;;;;5.20;2.88;;;;;;;-144.47;87.18;52858.06;5018552;28;20022;-91
2023/01/03 05:55:22;;;;;;;5.85;2.80;;;;;;;-144.47;87.18;52856.09;5018903;28;20030;-90
2023/01/03 05:57:48;;;;;;;6.47;3.22;;;;;;;-144.47;87.16;52848.16;5006004;28;20072;-90
2023/01/03 06:00:27;;;;;;;7.07;3.17;;;;;;;-144.47;87.12;52856.09;5021309;28;20030;-92
2023/01/03 06:02:56;;;;;;;7.82;3.42;;;;;;;-144.47;87.29;52858.06;5004584;28;20545;-93
2023/01/03 06:05:24;;;;;;;6.82;3.53;;;;;;;-144.47;86.89;52836.22;5022646;28;20025;-92
2023/01/03 06:07:56;;;;;;;6.43;3.40;;;;;;;-144.47;86.84;52828.28;5038239;28;20026;-91
2023/01/03 06:10:22;;;;;;;7.85;3.83;;;;;;;-144.47;86.55;52846.16;5038714;28;20029;-88
2023/01/03 06:12:47;;;;;;;6.25;3.28;;;;;;;-144.47;86.84;52840.19;5039743;28;20022;-91
2023/01/03 06:15:13;;;;;;;7.65;3.40;;;;;;;-144.47;87.01;52864.03;5038926;28;20078;-90
2023/01/03 06:17:58;;;;;;;7.18;3.63;;;;;;;-144.47;87.42;52870.00;5038172;28;20026;-90
2023/01/03 06:20:38;;;;;;;7.30;3.40;;;;;;;-144.47;88.06;52840.19;5025575;28;20030;-91
2023/01/03 06:23:07;;;;;;;9.50;3.70;;;;;;;-144.47;87.87;52850.13;5039888;28;20018;-90
2023/01/03 06:25:33;;;;;;;6.90;4.00;;;;;;;-144.47;88.21;52871.97;5022445;28;20086;-91
2023/01/03 06:28:27;;;;;;;8.48;3.53;;;;;;;-144.47;88.91;52875.94;5038637;28;20018;-92
2023/01/03 06:30:58;;;;;;;6.60;3.67;;;;;;;-144.47;89.65;52862.06;5039060;28;20028;-90
2023/01/03 06:33:31;;;;;;;11.27;4.35;;;;;;;-144.47;90.63;52858.06;5018573;28;20050;-89
2023/01/03 06:36:01;;;;;;;11.25;3.83;;;;;;;-144.47;93.37;52881.91;5026326;28;20026;-90
2023/01/03 06:38:34;;;;;;;10.80;4.32;;;;;;;-144.47;93.33;52854.09;5013081;28;20072;-90
2023/01/03 06:41:09;;;;;;;12.00;3.92;;;;;;;-144.47;91.64;52891.84;5027139;28;20026;-89
2023/01/03 06:43:37;;;;;;;11.75;3.88;;;;;;;-144.47;92.06;52905.75;5004675;28;20026;-90
2023/01/03 06:54:47;;;;;;;;;;;;;;;;;;;;;
2023/01/03 06:57:20;;;;;;;13.40;3.88;;;;;;;-144.47;92.98;52907.72;5026499;28;20061;-90
2023/01/03 06:59:56;;;;;;;8.38;3.83;;;;;;;-144.47;92.58;52885.88;5026542;28;20030;-90
2023/01/03 07:03:00;;;;;;;;;;;;;;;;;;;;;
2023/01/03 07:05:55;;;;;;;12.10;4.25;;;;;;;-144.47;91.67;52907.72;5024093;28;20109;-89
2023/01/03 07:08:41;;;;;;;8.13;4.47;;;;;;;-144.47;91.93;52840.19;5021987;28;20042;-92
2023/01/03 07:11:25;;;;;;;;;;;;;;;;;;;;;
2023/01/03 07:13:59;;;;;;;12.68;4.25;;;;;;;-144.47;93.49;52915.69;5030359;28;20068;-90
2023/01/03 07:16:43;;;;;;;9.23;4.63;;;;;;;-144.47;94.38;52923.63;5027103;28;20045;-90
2023/01/03 07:19:20;;;;;;;8.57;4.78;;;;;;;-144.47;94.90;52929.59;5031584;28;20089;-90
2023/01/03 07:21:46;;;;;;;10.00;5.28;;;;;;;-144.47;95.32;52919.66;5031938;28;20026;-90
2023/01/03 07:24:18;;;;;;;11.98;5.40;;;;;;;-144.47;96.22;52903.75;5029908;28;20097;-90
2023/01/03 07:26:55;;;;;;;9.90;4.75;;;;;;;-144.47;96.23;52915.69;5004965;28;20034;-90
2023/01/03 07:29:24;;;;;;;10.20;4.93;;;;;;;-144.47;97.19;52907.72;5014244;28;20036;-90
2023/01/03 07:31:52;;;;;;;;;;;;;;;-144.47;97.77;52925.59;5019119;28;20064;-88
2023/01/03 07:34:18;;;;;;;11.13;5.30;;;;;;;-144.47;97.63;52919.66;5022398;28;20282;-90
2023/01/03 07:36:55;;;;;;;9.85;4.72;;;;;;;-144.47;97.60;52923.63;5017895;28;20022;-90
2023/01/03 07:39:24;;;;;;;8.52;4.68;;;;;;;-144.47;97.85;52931.56;5016908;28;20593;-86
2023/01/03 07:44:54;;;;;;;10.13;4.65;;;;;;;-144.47;97.39;52925.59;5019690;28;20048;-87
2023/01/03 07:47:35;;;;;;;11.80;4.88;;;;;;;-144.47;97.54;52935.53;5018515;28;20096;-88
2023/01/03 07:50:23;;;;;;;11.82;4.60;;;;;;;-144.47;97.63;52945.47;5019706;28;20044;-89
2023/01/03 07:52:54;;;;;;;12.18;5.22;;;;;;;-144.47;97.89;52919.66;5019248;28;20451;-89
2023/01/03 07:55:24;;;;;;;10.75;5.35;;;;;;;-144.47;98.47;52929.59;5018404;28;20030;-91
2023/01/03 07:57:54;;;;;;;11.73;4.85;;;;;;;-144.47;98.60;52923.63;5018448;28;20420;-89
2023/01/03 08:00:20;;;;;;;12.25;5.03;;;;;;;-144.47;98.13;52931.56;5018939;28;20030;-89
2023/01/03 08:02:56;;;;;;;12.60;5.63;;;;;;;-144.47;97.83;52923.63;5018369;28;20172;-87
2023/01/03 08:05:25;;;;;;;10.02;4.97;;;;;;;-144.47;96.74;52925.59;5020349;28;20025;-90
2023/01/03 08:07:51;;;;;;;;;;;;;;;-144.47;95.86;52907.72;5021016;28;20045;-88
2023/01/03 08:13:17;;;;;;;8.50;4.28;;;;;;;-144.47;93.77;52927.59;5024975;28;20068;-90
2023/01/03 08:16:04;;;;;;;10.48;3.85;;;;;;;-144.47;92.66;52887.88;5018699;28;20034;-89
2023/01/03 08:18:42;;;;;;;7.55;3.95;;;;;;;-144.47;92.05;52907.72;5033318;28;20029;-89
2023/01/03 08:21:20;;;;;;;7.50;4.07;;;;;;;-144.47;92.21;52875.94;5019960;28;20476;-89
2023/01/03 08:24:10;;;;;;;8.38;4.30;;;;;;;-144.47;91.89;52921.63;5032257;28;20482;-89
2023/01/03 08:26:57;;;;;;;8.63;4.38;;;;;;;-144.47;91.69;52897.81;5017840;28;20026;-89
2023/01/03 08:29:26;;;;;;;14.82;4.95;;;;;;;-144.47;91.53;52868.00;5000795;28;20060;-89
2023/01/03 08:32:02;;;;;;;9.13;4.53;;;;;;;-144.47;90.85;52868.00;5020788;28;20084;-89
2023/01/03 08:34:47;;;;;;;6.85;3.60;;;;;;;-144.47;91.03;52911.69;5016691;28;20038;-90
2023/01/03 08:37:20;;;;;;;7.75;5.07;;;;;;;-144.47;90.89;52919.66;5017672;28;20034;-88
2023/01/03 08:40:08;;;;;;;9.70;4.40;;;;;;;-144.47;90.95;52891.84;5016273;28;20050;-91
2023/01/03 08:42:39;;;;;;;10.82;4.53;;;;;;;-144.47;90.77;52881.91;5018644;28;20025;-88
2023/01/03 08:45:31;;;;;;;8.10;4.13;;;;;;;-144.47;90.38;52895.81;5024710;28;20029;-87
2023/01/03 08:48:11;;;;;;;8.07;4.00;;;;;;;-144.47;89.76;52850.13;5021786;28;20053;-87
2023/01/03 08:50:39;;;;;;;8.93;4.13;;;;;;;-144.47;89.83;52889.84;5023790;28;20056;-89
2023/01/03 08:53:13;;;;;;;7.28;3.80;;;;;;;-144.47;89.13;52879.94;5021062;28;20037;-88
2023/01/03 08:55:52;;;;;;;14.00;4.35;;;;;;;-144.47;88.72;52893.81;5016668;28;20479;-89
2023/01/03 08:58:21;;;;;;;12.77;4.40;;;;;;;-144.47;88.23;52883.91;5018794;28;20093;-90
2023/01/03 09:00:49;;;;;;;12.05;4.88;;;;;;;-144.47;87.73;52862.06;5016801;28;20034;-90
2023/01/03 09:03:25;;;;;;;10.53;4.10;;;;;;;-144.47;87.22;52881.91;5016530;28;20501;-89
2023/01/03 09:05:53;;;;;;;10.30;4.75;;;;;;;-144.47;86.56;52883.91;5021696;28;20482;-88
2023/01/03 09:08:22;;;;;;;7.50;3.72;;;;;;;-144.47;86.18;52883.91;5015884;28;20033;-90
2023/01/03 09:10:50;;;;;;;5.82;3.25;;;;;;;-144.47;85.51;52897.81;5016324;28;20084;-89
2023/01/03 09:13:18;;;;;;;10.00;4.10;;;;;;;-144.47;85.47;52891.84;5016579;28;20061;-90
2023/01/03 09:15:44;;;;;;;9.13;3.97;;;;;;;-144.47;85.05;52864.03;5020329;28;20283;-89
2023/01/03 09:18:13;;;;;;;11.18;4.32;;;;;;;-144.47;85.85;52895.81;5019429;28;20066;-86
2023/01/03 09:20:52;;;;;;;;;;;;;;;-144.47;85.88;52889.84;5019601;28;20108;-89
2023/01/03 09:23:25;;;;;;;10.98;3.92;;;;;;;-144.47;85.65;52887.88;5019264;28;19996;-88
2023/01/03 09:26:14;;;;;;;;;;;;;;;;;;;;;
2023/01/03 09:28:46;;;;;;;13.40;4.07;;;;;;;-144.47;85.67;52895.81;5017415;28;20116;-89
2023/01/03 09:31:12;;;;;;;6.25;3.33;;;;;;;-144.47;84.86;52864.03;5020759;28;20663;-86
2023/01/03 09:33:38;;;;;;;5.30;2.97;;;;;;;-144.47;84.71;52860.06;5019876;28;20474;-88
2023/01/03 09:36:11;;;;;;;5.95;2.83;;;;;;;-144.47;84.83;52860.06;5022289;28;20036;-90
2023/01/03 09:38:41;;;;;;;6.90;3.20;;;;;;;-144.47;83.56;52885.88;5021479;28;20442;-89
2023/01/03 09:41:15;;;;;;;6.32;3.20;;;;;;;-144.47;83.44;52891.84;5020734;28;20017;-89
2023/01/03 09:43:51;;;;;;;5.60;2.72;;;;;;;-144.47;83.29;52860.06;5002143;28;20045;-90
2023/01/03 09:46:30;;;;;;;8.98;3.20;;;;;;;-144.47;82.87;52856.09;5008747;28;20034;-89
2023/01/03 09:48:56;;;;;;;;;;;;;;;-144.47;82.89;52860.06;5019383;28;20037;-89
2023/01/03 10:03:42;;;;;;;9.23;2.40;;;;;;;-144.47;81.45;52868.00;5019030;28;20069;-88
2023/01/03 10:06:11;;;;;;;6.20;2.97;;;;;;;-144.47;80.59;52899.78;5019584;28;20033;-89
2023/01/03 10:08:37;;;;;;;6.25;2.38;;;;;;;-144.47;79.82;52870.00;5017899;28;20033;-90
2023/01/03 10:11:10;;;;;;;3.85;1.85;;;;;;;-144.47;77.95;52860.06;5019699;28;20030;-89
2023/01/03 10:13:44;;;;;;;4.28;1.80;;;;;;;-144.47;77.22;52868.00;5014197;28;20105;-89
2023/01/03 10:16:33;;;;;;;4.35;1.80;;;;;;;-144.47;76.68;52873.97;5027766;28;20025;-89
2023/01/03 10:19:19;;;;;;;3.60;1.50;;;;;;;-144.47;75.63;52828.28;5005257;28;20482;-90
2023/01/03 10:22:05;;;;;;;7.13;1.50;;;;;;;-144.47;75.82;52852.13;5017066;28;20037;-90
2023/01/03 10:24:42;;;;;;;5.75;1.65;;;;;;;-144.47;75.44;52868.00;5021392;28;20022;-89
2023/01/03 10:27:22;;;;;;;4.50;1.55;;;;;;;-144.47;75.48;52842.19;5016679;28;20026;-89
2023/01/03 10:29:56;;;;;;;3.30;1.63;;;;;;;-144.47;75.69;52840.19;5017838;28;20037;-88
2023/01/03 10:32:35;;;;;;;3.60;1.52;;;;;;;-144.47;75.24;52858.06;5019395;28;20025;-90
2023/01/03 10:35:01;;;;;;;9.73;1.85;;;;;;;-144.47;75.46;52854.09;4997713;28;20026;-89
2023/01/03 10:37:26;;;;;;;12.70;1.73;;;;;;;-144.47;75.61;52822.31;5014116;28;20056;-89
2023/01/03 10:40:03;;;;;;;3.85;1.80;;;;;;;-144.47;75.06;52828.28;5017795;28;20025;-89
2023/01/03 10:42:32;;;;;;;3.20;1.58;;;;;;;-144.47;74.99;52862.06;5016807;28;20509;-90
2023/01/03 10:45:11;;;;;;;7.72;2.83;;;;;;;-144.47;75.27;52860.06;5016338;28;20041;-89
2023/01/03 10:47:36;;;;;;;4.13;1.67;;;;;;;-144.47;74.99;52850.13;5016221;28;20025;-89
2023/01/03 10:50:07;;;;;;;3.30;1.80;;;;;;;-144.47;74.94;52875.94;5019689;28;20121;-88
2023/01/03 10:52:40;;;;;;;5.57;2.35;;;;;;;-144.47;75.71;52866.03;5017613;28;20036;-89
2023/01/03 10:55:15;;;;;;;8.82;1.63;;;;;;;-144.47;76.16;52881.91;5018043;28;20505;-89
2023/01/03 10:57:44;;;;;;;4.57;1.67;;;;;;;-144.47;75.96;52836.22;4999187;28;20050;-89
2023/01/03 11:00:19;;;;;;;5.55;1.90;;;;;;;-144.47;76.24;52840.19;5011704;28;20368;-90
2023/01/03 11:02:47;;;;;;;4.22;1.80;;;;;;;-144.47;75.88;52844.19;5018920;28;20030;-88
2023/01/03 11:05:19;;;;;;;3.83;1.95;;;;;;;-144.47;75.86;52881.91;5021096;28;20672;-89
2023/01/03 11:08:05;;;;;;;4.00;1.90;;;;;;;-144.47;75.60;52850.13;5016536;28;20037;-89
2023/01/03 11:10:48;;;;;;;5.13;1.75;;;;;;;-144.47;76.06;52846.16;5018518;28;20025;-89
2023/01/03 11:13:25;;;;;;;7.47;1.90;;;;;;;-144.47;75.86;52834.25;5017433;28;20484;-90
2023/01/03 11:16:02;;;;;;;14.45;2.75;;;;;;;-144.47;76.33;52846.16;5032813;28;20030;-88
2023/01/03 11:18:31;;;;;;;6.07;1.98;;;;;;;-144.47;76.35;52856.09;5017513;28;20076;-87
2023/01/03 11:21:09;;;;;;;7.88;2.15;;;;;;;-144.47;75.64;52842.19;5022450;28;20077;-89
2023/01/03 11:23:46;;;;;;;2.17;1.25;;;;;;;-144.47;75.34;52846.16;5017651;28;20033;-90
2023/01/03 11:26:33;;;;;;;6.10;1.75;;;;;;;-144.47;75.08;52844.19;5033375;28;20029;-89
2023/01/03 11:29:35;;;;;;;4.38;1.80;;;;;;;-144.47;74.90;52828.28;5017684;28;20026;-89
2023/01/03 11:32:20;;;;;;;4.82;1.70;;;;;;;-144.47;74.10;52840.19;5015104;28;20439;-89
2023/01/03 11:35:00;;;;;;;4.88;1.45;;;;;;;-144.47;73.02;52842.19;5017360;28;20026;-89
2023/01/03 11:38:03;;;;;;;5.25;2.05;;;;;;;-144.47;72.83;52844.19;5012648;28;20490;-90
2023/01/03 11:40:44;;;;;;;4.22;1.48;;;;;;;-144.47;71.10;52832.25;5016624;28;20069;-89
2023/01/03 11:43:38;;;;;;;3.97;1.20;;;;;;;-144.47;71.30;52820.34;5007672;28;20101;-90
2023/01/03 11:46:34;;;;;;;3.03;1.38;;;;;;;-144.47;72.46;52814.38;5015360;28;20022;-90
2023/01/03 11:49:23;;;;;;;4.07;1.77;;;;;;;-144.47;72.41;52830.28;5015943;28;20030;-89
2023/01/03 11:51:55;;;;;;;5.65;2.33;;;;;;;-144.47;72.17;52832.25;5018325;28;21262;-91
2023/01/03 11:54:50;;;;;;;6.22;2.50;;;;;;;-144.47;71.83;52820.34;5015073;28;20033;-89
2023/01/03 11:57:42;;;;;;;3.78;1.70;;;;;;;-144.47;71.08;52824.31;5025309;28;20014;-88
2023/01/03 12:00:37;;;;;;;5.72;1.58;;;;;;;-144.47;70.17;52836.22;5029217;28;20029;-90
2023/01/03 12:03:29;;;;;;;4.00;2.00;;;;;;;-144.47;70.71;52818.34;5006429;28;20050;-90
2023/01/03 12:06:35;;;;;;;4.30;1.80;;;;;;;-144.47;70.94;52846.16;4998971;28;20093;-90
2023/01/03 12:09:11;;;;;;;7.22;1.77;;;;;;;-144.47;71.06;52806.44;4945745;29;20058;-89
2023/01/03 12:12:02;;;;;;;3.95;1.75;;;;;;;-144.47;70.83;52842.19;4979260;28;20599;-89
2023/01/03 12:15:03;;;;;;;3.88;1.50;;;;;;;-144.47;71.59;52820.34;4986044;28;20042;-90
2023/01/03 12:18:02;;;;;;;8.98;1.77;;;;;;;-144.47;70.69;52838.22;4972835;28;20083;-90
2023/01/03 12:20:37;;;;;;;7.22;1.80;;;;;;;-144.47;70.68;52834.25;4980471;28;20038;-89
2023/01/03 12:23:14;;;;;;;8.65;1.92;;;;;;;-144.47;70.38;52842.19;4988467;28;20086;-90
2023/01/03 12:25:56;;;;;;;3.15;1.45;;;;;;;-144.47;70.37;52840.19;4993708;28;20019;-89
2023/01/03 12:28:52;;;;;;;4.03;1.50;;;;;;;-144.47;70.91;52836.22;4993127;28;20057;-90
2023/01/03 12:31:48;;;;;;;6.93;1.65;;;;;;;-144.47;71.00;52842.19;4979062;28;20142;-89
2023/01/03 12:34:47;;;;;;;3.80;1.30;;;;;;;-144.47;71.01;52830.28;4995356;28;20038;-90
2023/01/03 12:37:25;;;;;;;4.82;1.65;;;;;;;-144.47;70.20;52824.31;4977667;28;20037;-90
2023/01/03 12:40:00;;;;;;;3.15;1.20;;;;;;;-144.47;69.32;52836.22;4992454;28;20037;-89
2023/01/03 12:42:46;;;;;;;2.95;1.30;;;;;;;-144.47;68.51;52826.31;5011776;28;20033;-89
2023/01/03 12:45:49;;;;;;;3.63;1.63;;;;;;;-144.47;68.50;52830.28;5012298;28;20022;-88
2023/01/03 12:48:35;;;;;;;4.45;1.60;;;;;;;-144.47;69.01;52844.19;5002446;28;20066;-90
2023/01/03 12:51:00;;;;;;;2.60;1.35;;;;;;;-144.47;69.28;52854.09;5018670;28;20914;-90
2023/01/03 12:53:50;;;;;;;4.32;1.33;;;;;;;-144.47;69.32;52840.19;5014774;28;20030;-88
2023/01/03 12:56:37;;;;;;;3.83;1.40;;;;;;;-144.47;68.95;52852.13;5013907;28;20462;-90